sensor_id;sensor_type;location;lat;lon;timestamp;temperature;humidity
61201;DHT22;47065;52.898;6.992;2022-10-31T00:00:59;13.90;99.90
61201;DHT22;47065;52.898;6.992;2022-10-31T00:03:25;13.80;99.90
61201;DHT22;47065;52.898;6.992;2022-10-31T00:05:52;13.80;99.90
61201;DHT22;47065;52.898;6.992;2022-10-31T00:08:18;13.80;99.90
61201;DHT22;47065;52.898;6.992;2022-10-31T00:10:45;13.80;99.90
61201;DHT22;47065;52.898;6.992;2022-10-31T00:13:12;13.70;99.90
61201;DHT22;47065;52.898;6.992;2022-10-31T00:15:39;13.70;99.90
61201;DHT22;47065;52.898;6.992;2022-10-31T00:18:06;13.60;99.90
61201;DHT22;47065;52.898;6.992;2022-10-31T00:20:32;13.60;99.90
61201;DHT22;47065;52.898;6.992;2022-10-31T00:23:01;13.60;99.90
61201;DHT22;47065;52.898;6.992;2022-10-31T00:25:28;13.50;99.90
61201;DHT22;47065;52.898;6.992;2022-10-31T00:27:54;13.60;99.90
61201;DHT22;47065;52.898;6.992;2022-10-31T00:30:20;13.50;99.90
61201;DHT22;47065;52.898;6.992;2022-10-31T00:32:45;13.50;99.90
61201;DHT22;47065;52.898;6.992;2022-10-31T00:35:11;13.40;99.90
61201;DHT22;47065;52.898;6.992;2022-10-31T00:37:37;13.30;99.90
61201;DHT22;47065;52.898;6.992;2022-10-31T00:40:02;13.40;99.90
61201;DHT22;47065;52.898;6.992;2022-10-31T00:42:28;13.30;99.90
61201;DHT22;47065;52.898;6.992;2022-10-31T00:44:54;13.30;99.90
61201;DHT22;47065;52.898;6.992;2022-10-31T00:47:19;13.30;99.90
61201;DHT22;47065;52.898;6.992;2022-10-31T00:49:45;13.30;99.90
61201;DHT22;47065;52.898;6.992;2022-10-31T00:52:10;13.30;99.90
61201;DHT22;47065;52.898;6.992;2022-10-31T00:54:36;13.30;99.90
61201;DHT22;47065;52.898;6.992;2022-10-31T00:57:02;13.20;99.90
61201;DHT22;47065;52.898;6.992;2022-10-31T00:59:27;13.20;99.90
61201;DHT22;47065;52.898;6.992;2022-10-31T01:01:53;13.20;99.90
61201;DHT22;47065;52.898;6.992;2022-10-31T01:04:19;13.00;99.90
61201;DHT22;47065;52.898;6.992;2022-10-31T01:06:44;12.90;99.90
61201;DHT22;47065;52.898;6.992;2022-10-31T01:09:10;12.70;99.90
61201;DHT22;47065;52.898;6.992;2022-10-31T01:11:35;12.60;99.90
61201;DHT22;47065;52.898;6.992;2022-10-31T01:14:01;12.40;99.90
61201;DHT22;47065;52.898;6.992;2022-10-31T01:16:27;12.30;99.90
61201;DHT22;47065;52.898;6.992;2022-10-31T01:18:54;12.20;99.90
61201;DHT22;47065;52.898;6.992;2022-10-31T01:21:23;12.20;99.90
61201;DHT22;47065;52.898;6.992;2022-10-31T01:23:49;12.10;99.90
61201;DHT22;47065;52.898;6.992;2022-10-31T01:26:21;12.10;99.90
61201;DHT22;47065;52.898;6.992;2022-10-31T01:28:49;12.10;99.90
61201;DHT22;47065;52.898;6.992;2022-10-31T01:31:16;12.10;99.90
61201;DHT22;47065;52.898;6.992;2022-10-31T01:33:42;12.00;99.90
61201;DHT22;47065;52.898;6.992;2022-10-31T01:36:17;12.10;99.90
61201;DHT22;47065;52.898;6.992;2022-10-31T01:38:42;12.10;99.90
61201;DHT22;47065;52.898;6.992;2022-10-31T01:41:11;12.10;99.90
61201;DHT22;47065;52.898;6.992;2022-10-31T01:43:49;12.10;99.90
61201;DHT22;47065;52.898;6.992;2022-10-31T01:46:27;12.10;99.90
61201;DHT22;47065;52.898;6.992;2022-10-31T01:48:55;12.10;99.90
61201;DHT22;47065;52.898;6.992;2022-10-31T01:51:26;12.10;99.90
61201;DHT22;47065;52.898;6.992;2022-10-31T01:53:55;12.20;99.90
61201;DHT22;47065;52.898;6.992;2022-10-31T01:56:23;12.20;99.90
61201;DHT22;47065;52.898;6.992;2022-10-31T01:58:49;12.20;99.90
61201;DHT22;47065;52.898;6.992;2022-10-31T02:01:16;12.20;99.90
61201;DHT22;47065;52.898;6.992;2022-10-31T02:03:42;12.20;99.90
61201;DHT22;47065;52.898;6.992;2022-10-31T02:06:13;12.20;99.90
61201;DHT22;47065;52.898;6.992;2022-10-31T02:08:41;12.20;99.90
61201;DHT22;47065;52.898;6.992;2022-10-31T02:11:08;12.10;99.90
61201;DHT22;47065;52.898;6.992;2022-10-31T02:13:34;12.20;99.90
61201;DHT22;47065;52.898;6.992;2022-10-31T02:16:00;12.20;99.90
61201;DHT22;47065;52.898;6.992;2022-10-31T02:18:28;12.10;99.90
61201;DHT22;47065;52.898;6.992;2022-10-31T02:29:34;11.80;99.90
61201;DHT22;47065;52.898;6.992;2022-10-31T02:35:13;11.60;99.90
61201;DHT22;47065;52.898;6.992;2022-10-31T02:37:48;11.50;99.90
61201;DHT22;47065;52.898;6.992;2022-10-31T02:42:59;11.40;99.90
61201;DHT22;47065;52.898;6.992;2022-10-31T02:45:29;11.40;99.90
61201;DHT22;47065;52.898;6.992;2022-10-31T02:47:59;11.30;99.90
61201;DHT22;47065;52.898;6.992;2022-10-31T02:50:31;11.30;99.90
61201;DHT22;47065;52.898;6.992;2022-10-31T02:52:58;11.20;99.90
61201;DHT22;47065;52.898;6.992;2022-10-31T02:57:59;11.20;99.90
61201;DHT22;47065;52.898;6.992;2022-10-31T03:00:26;11.10;99.90
61201;DHT22;47065;52.898;6.992;2022-10-31T03:05:27;11.00;99.90
61201;DHT22;47065;52.898;6.992;2022-10-31T03:10:58;11.00;99.90
61201;DHT22;47065;52.898;6.992;2022-10-31T03:15:53;10.90;99.90
61201;DHT22;47065;52.898;6.992;2022-10-31T03:18:40;10.90;99.90
61201;DHT22;47065;52.898;6.992;2022-10-31T03:21:14;10.80;99.90
61201;DHT22;47065;52.898;6.992;2022-10-31T03:23:44;10.80;99.90
61201;DHT22;47065;52.898;6.992;2022-10-31T03:26:12;10.70;99.90
61201;DHT22;47065;52.898;6.992;2022-10-31T03:29:02;10.70;99.90
61201;DHT22;47065;52.898;6.992;2022-10-31T03:31:32;10.70;99.90
61201;DHT22;47065;52.898;6.992;2022-10-31T03:33:59;10.70;99.90
61201;DHT22;47065;52.898;6.992;2022-10-31T03:36:27;10.70;99.90
61201;DHT22;47065;52.898;6.992;2022-10-31T03:38:54;10.60;99.90
61201;DHT22;47065;52.898;6.992;2022-10-31T03:41:23;10.60;99.90
61201;DHT22;47065;52.898;6.992;2022-10-31T03:44:04;10.60;99.90
61201;DHT22;47065;52.898;6.992;2022-10-31T03:46:31;10.60;99.90
61201;DHT22;47065;52.898;6.992;2022-10-31T03:48:58;10.50;99.90
61201;DHT22;47065;52.898;6.992;2022-10-31T03:51:53;10.50;99.90
61201;DHT22;47065;52.898;6.992;2022-10-31T03:54:44;10.50;99.90
61201;DHT22;47065;52.898;6.992;2022-10-31T03:57:43;10.50;99.90
61201;DHT22;47065;52.898;6.992;2022-10-31T04:00:12;10.50;99.90
61201;DHT22;47065;52.898;6.992;2022-10-31T04:02:41;10.40;99.90
61201;DHT22;47065;52.898;6.992;2022-10-31T04:05:10;10.40;99.90
61201;DHT22;47065;52.898;6.992;2022-10-31T04:07:41;10.40;99.90
61201;DHT22;47065;52.898;6.992;2022-10-31T04:10:11;10.30;99.90
61201;DHT22;47065;52.898;6.992;2022-10-31T04:12:38;10.30;99.90
61201;DHT22;47065;52.898;6.992;2022-10-31T04:15:06;10.30;99.90
61201;DHT22;47065;52.898;6.992;2022-10-31T04:17:35;10.20;99.90
61201;DHT22;47065;52.898;6.992;2022-10-31T04:20:02;10.20;99.90
61201;DHT22;47065;52.898;6.992;2022-10-31T04:22:28;10.10;99.90
61201;DHT22;47065;52.898;6.992;2022-10-31T04:24:53;10.10;99.90
61201;DHT22;47065;52.898;6.992;2022-10-31T04:27:19;10.00;99.90
61201;DHT22;47065;52.898;6.992;2022-10-31T04:29:45;9.90;99.90
61201;DHT22;47065;52.898;6.992;2022-10-31T04:32:10;9.80;99.90
61201;DHT22;47065;52.898;6.992;2022-10-31T04:34:36;9.80;99.90
61201;DHT22;47065;52.898;6.992;2022-10-31T04:37:01;9.70;99.90
61201;DHT22;47065;52.898;6.992;2022-10-31T04:39:27;9.60;99.90
61201;DHT22;47065;52.898;6.992;2022-10-31T04:41:52;9.60;99.90
61201;DHT22;47065;52.898;6.992;2022-10-31T04:44:18;9.60;99.90
61201;DHT22;47065;52.898;6.992;2022-10-31T04:46:44;9.50;99.90
61201;DHT22;47065;52.898;6.992;2022-10-31T04:49:09;9.50;99.90
61201;DHT22;47065;52.898;6.992;2022-10-31T04:51:35;9.50;99.90
61201;DHT22;47065;52.898;6.992;2022-10-31T04:54:00;9.40;99.90
61201;DHT22;47065;52.898;6.992;2022-10-31T04:56:26;9.40;99.90
61201;DHT22;47065;52.898;6.992;2022-10-31T04:58:52;9.40;99.90
61201;DHT22;47065;52.898;6.992;2022-10-31T05:01:18;9.30;99.90
61201;DHT22;47065;52.898;6.992;2022-10-31T05:03:43;9.40;99.90
61201;DHT22;47065;52.898;6.992;2022-10-31T05:06:09;9.30;99.90
61201;DHT22;47065;52.898;6.992;2022-10-31T05:08:35;9.30;99.90
61201;DHT22;47065;52.898;6.992;2022-10-31T05:11:01;9.30;99.90
61201;DHT22;47065;52.898;6.992;2022-10-31T05:13:27;9.30;99.90
61201;DHT22;47065;52.898;6.992;2022-10-31T05:15:53;9.30;99.90
61201;DHT22;47065;52.898;6.992;2022-10-31T05:18:18;9.20;99.90
61201;DHT22;47065;52.898;6.992;2022-10-31T05:20:44;9.30;99.90
61201;DHT22;47065;52.898;6.992;2022-10-31T05:23:09;9.20;99.90
61201;DHT22;47065;52.898;6.992;2022-10-31T05:25:35;9.20;99.90
61201;DHT22;47065;52.898;6.992;2022-10-31T05:28:01;9.20;99.90
61201;DHT22;47065;52.898;6.992;2022-10-31T05:30:28;9.30;99.90
61201;DHT22;47065;52.898;6.992;2022-10-31T05:32:55;9.20;99.90
61201;DHT22;47065;52.898;6.992;2022-10-31T05:35:29;9.20;99.90
61201;DHT22;47065;52.898;6.992;2022-10-31T05:37:56;9.20;99.90
61201;DHT22;47065;52.898;6.992;2022-10-31T05:40:23;9.20;99.90
61201;DHT22;47065;52.898;6.992;2022-10-31T05:42:52;9.20;99.90
61201;DHT22;47065;52.898;6.992;2022-10-31T05:45:19;9.20;99.90
61201;DHT22;47065;52.898;6.992;2022-10-31T05:48:11;9.20;99.90
61201;DHT22;47065;52.898;6.992;2022-10-31T05:50:36;9.20;99.90
61201;DHT22;47065;52.898;6.992;2022-10-31T05:53:03;9.20;99.90
61201;DHT22;47065;52.898;6.992;2022-10-31T05:55:30;9.20;99.90
61201;DHT22;47065;52.898;6.992;2022-10-31T05:57:56;9.20;99.90
61201;DHT22;47065;52.898;6.992;2022-10-31T06:00:24;9.10;99.90
61201;DHT22;47065;52.898;6.992;2022-10-31T06:02:58;9.10;99.90
61201;DHT22;47065;52.898;6.992;2022-10-31T06:05:24;9.00;99.90
61201;DHT22;47065;52.898;6.992;2022-10-31T06:07:49;9.00;99.90
61201;DHT22;47065;52.898;6.992;2022-10-31T06:10:15;9.00;99.90
61201;DHT22;47065;52.898;6.992;2022-10-31T06:12:41;8.90;99.90
61201;DHT22;47065;52.898;6.992;2022-10-31T06:15:08;8.90;99.90
61201;DHT22;47065;52.898;6.992;2022-10-31T06:17:34;8.90;99.90
61201;DHT22;47065;52.898;6.992;2022-10-31T06:20:00;8.90;99.90
61201;DHT22;47065;52.898;6.992;2022-10-31T06:22:26;8.90;99.90
61201;DHT22;47065;52.898;6.992;2022-10-31T06:24:51;8.90;99.90
61201;DHT22;47065;52.898;6.992;2022-10-31T06:27:17;8.90;99.90
61201;DHT22;47065;52.898;6.992;2022-10-31T06:29:42;8.90;99.90
61201;DHT22;47065;52.898;6.992;2022-10-31T06:32:11;8.80;99.90
61201;DHT22;47065;52.898;6.992;2022-10-31T06:34:38;8.70;99.90
61201;DHT22;47065;52.898;6.992;2022-10-31T06:37:06;8.80;99.90
61201;DHT22;47065;52.898;6.992;2022-10-31T06:39:32;8.80;99.90
61201;DHT22;47065;52.898;6.992;2022-10-31T06:41:58;8.80;99.90
61201;DHT22;47065;52.898;6.992;2022-10-31T06:44:24;8.80;99.90
61201;DHT22;47065;52.898;6.992;2022-10-31T06:46:50;8.80;99.90
61201;DHT22;47065;52.898;6.992;2022-10-31T06:49:15;8.80;99.90
61201;DHT22;47065;52.898;6.992;2022-10-31T06:51:41;8.80;99.90
61201;DHT22;47065;52.898;6.992;2022-10-31T06:54:07;8.80;99.90
61201;DHT22;47065;52.898;6.992;2022-10-31T06:56:33;8.80;99.90
61201;DHT22;47065;52.898;6.992;2022-10-31T06:58:58;8.80;99.90
61201;DHT22;47065;52.898;6.992;2022-10-31T07:01:24;8.70;99.90
61201;DHT22;47065;52.898;6.992;2022-10-31T07:03:49;8.70;99.90
61201;DHT22;47065;52.898;6.992;2022-10-31T07:06:15;8.70;99.90
61201;DHT22;47065;52.898;6.992;2022-10-31T07:08:41;8.60;99.90
61201;DHT22;47065;52.898;6.992;2022-10-31T07:11:06;8.60;99.90
61201;DHT22;47065;52.898;6.992;2022-10-31T07:13:32;8.60;99.90
61201;DHT22;47065;52.898;6.992;2022-10-31T07:16:03;8.60;99.90
61201;DHT22;47065;52.898;6.992;2022-10-31T07:18:29;8.50;99.90
61201;DHT22;47065;52.898;6.992;2022-10-31T07:20:55;8.50;99.90
61201;DHT22;47065;52.898;6.992;2022-10-31T07:23:21;8.50;99.90
61201;DHT22;47065;52.898;6.992;2022-10-31T07:25:47;8.50;99.90
61201;DHT22;47065;52.898;6.992;2022-10-31T07:28:13;8.60;99.90
61201;DHT22;47065;52.898;6.992;2022-10-31T07:30:39;8.60;99.90
61201;DHT22;47065;52.898;6.992;2022-10-31T07:33:05;8.60;99.90
61201;DHT22;47065;52.898;6.992;2022-10-31T07:35:31;8.60;99.90
61201;DHT22;47065;52.898;6.992;2022-10-31T07:37:57;8.60;99.90
61201;DHT22;47065;52.898;6.992;2022-10-31T07:40:23;8.60;99.90
61201;DHT22;47065;52.898;6.992;2022-10-31T07:42:51;8.70;99.90
61201;DHT22;47065;52.898;6.992;2022-10-31T07:45:19;8.70;99.90
61201;DHT22;47065;52.898;6.992;2022-10-31T07:47:50;8.70;99.90
61201;DHT22;47065;52.898;6.992;2022-10-31T07:50:24;8.70;99.90
61201;DHT22;47065;52.898;6.992;2022-10-31T07:53:01;8.70;99.90
61201;DHT22;47065;52.898;6.992;2022-10-31T07:55:28;8.80;99.90
61201;DHT22;47065;52.898;6.992;2022-10-31T07:58:02;8.80;99.90
61201;DHT22;47065;52.898;6.992;2022-10-31T08:00:29;8.80;99.90
61201;DHT22;47065;52.898;6.992;2022-10-31T08:03:02;8.90;99.90
61201;DHT22;47065;52.898;6.992;2022-10-31T08:05:29;8.90;99.90
61201;DHT22;47065;52.898;6.992;2022-10-31T08:07:55;8.90;99.90
61201;DHT22;47065;52.898;6.992;2022-10-31T08:10:21;8.90;99.90
61201;DHT22;47065;52.898;6.992;2022-10-31T08:12:47;9.00;99.90
61201;DHT22;47065;52.898;6.992;2022-10-31T08:15:12;9.10;99.90
61201;DHT22;47065;52.898;6.992;2022-10-31T08:17:38;9.10;99.90
61201;DHT22;47065;52.898;6.992;2022-10-31T08:20:05;9.20;99.90
61201;DHT22;47065;52.898;6.992;2022-10-31T08:22:31;9.30;99.90
61201;DHT22;47065;52.898;6.992;2022-10-31T08:24:56;9.40;99.90
61201;DHT22;47065;52.898;6.992;2022-10-31T08:27:22;9.50;99.90
61201;DHT22;47065;52.898;6.992;2022-10-31T08:29:48;9.50;99.90
61201;DHT22;47065;52.898;6.992;2022-10-31T08:32:14;9.60;99.90
61201;DHT22;47065;52.898;6.992;2022-10-31T08:34:39;9.70;99.90
61201;DHT22;47065;52.898;6.992;2022-10-31T08:37:05;9.80;99.90
61201;DHT22;47065;52.898;6.992;2022-10-31T08:39:30;9.80;99.90
61201;DHT22;47065;52.898;6.992;2022-10-31T08:41:56;10.00;99.90
61201;DHT22;47065;52.898;6.992;2022-10-31T08:44:22;10.10;99.90
61201;DHT22;47065;52.898;6.992;2022-10-31T08:46:47;10.20;99.90
61201;DHT22;47065;52.898;6.992;2022-10-31T08:49:13;10.40;99.90
61201;DHT22;47065;52.898;6.992;2022-10-31T08:51:38;10.60;99.90
61201;DHT22;47065;52.898;6.992;2022-10-31T08:54:04;10.90;99.90
61201;DHT22;47065;52.898;6.992;2022-10-31T08:56:30;11.20;99.90
61201;DHT22;47065;52.898;6.992;2022-10-31T08:58:55;11.60;99.90
61201;DHT22;47065;52.898;6.992;2022-10-31T09:01:21;12.10;99.90
61201;DHT22;47065;52.898;6.992;2022-10-31T09:03:47;12.80;99.90
61201;DHT22;47065;52.898;6.992;2022-10-31T09:06:12;13.40;99.90
61201;DHT22;47065;52.898;6.992;2022-10-31T09:08:38;13.70;99.90
61201;DHT22;47065;52.898;6.992;2022-10-31T09:11:04;13.90;99.90
61201;DHT22;47065;52.898;6.992;2022-10-31T09:13:31;14.00;99.90
61201;DHT22;47065;52.898;6.992;2022-10-31T09:15:57;14.10;99.90
61201;DHT22;47065;52.898;6.992;2022-10-31T09:18:25;14.20;99.90
61201;DHT22;47065;52.898;6.992;2022-10-31T09:20:53;14.20;99.90
61201;DHT22;47065;52.898;6.992;2022-10-31T09:23:21;14.30;99.90
61201;DHT22;47065;52.898;6.992;2022-10-31T09:25:48;14.30;99.90
61201;DHT22;47065;52.898;6.992;2022-10-31T09:28:16;14.30;99.90
61201;DHT22;47065;52.898;6.992;2022-10-31T09:30:46;14.40;99.90
61201;DHT22;47065;52.898;6.992;2022-10-31T09:33:12;14.40;99.90
61201;DHT22;47065;52.898;6.992;2022-10-31T09:35:39;14.40;99.90
61201;DHT22;47065;52.898;6.992;2022-10-31T09:38:08;14.30;99.90
61201;DHT22;47065;52.898;6.992;2022-10-31T09:46:31;14.20;99.90
61201;DHT22;47065;52.898;6.992;2022-10-31T09:49:16;14.10;99.90
61201;DHT22;47065;52.898;6.992;2022-10-31T09:51:55;14.10;99.90
61201;DHT22;47065;52.898;6.992;2022-10-31T09:57:28;14.00;99.90
61201;DHT22;47065;52.898;6.992;2022-10-31T09:59:55;13.90;99.90
61201;DHT22;47065;52.898;6.992;2022-10-31T10:02:33;13.90;99.90
61201;DHT22;47065;52.898;6.992;2022-10-31T10:05:02;13.80;99.90
61201;DHT22;47065;52.898;6.992;2022-10-31T10:07:35;13.80;99.90
61201;DHT22;47065;52.898;6.992;2022-10-31T10:10:15;13.90;99.90
61201;DHT22;47065;52.898;6.992;2022-10-31T10:26:38;14.30;99.90
61201;DHT22;47065;52.898;6.992;2022-10-31T10:29:34;14.30;99.90
61201;DHT22;47065;52.898;6.992;2022-10-31T10:32:25;14.40;99.90
61201;DHT22;47065;52.898;6.992;2022-10-31T10:34:57;14.50;99.90
61201;DHT22;47065;52.898;6.992;2022-10-31T10:37:31;14.60;99.90
61201;DHT22;47065;52.898;6.992;2022-10-31T10:42:34;14.80;99.90
61201;DHT22;47065;52.898;6.992;2022-10-31T10:45:37;14.90;99.90
61201;DHT22;47065;52.898;6.992;2022-10-31T10:48:51;14.90;99.90
61201;DHT22;47065;52.898;6.992;2022-10-31T10:51:43;15.00;99.90
61201;DHT22;47065;52.898;6.992;2022-10-31T10:57:19;15.10;99.90
61201;DHT22;47065;52.898;6.992;2022-10-31T10:59:47;15.10;99.90
61201;DHT22;47065;52.898;6.992;2022-10-31T11:02:24;15.20;99.90
61201;DHT22;47065;52.898;6.992;2022-10-31T11:04:55;15.20;99.90
61201;DHT22;47065;52.898;6.992;2022-10-31T11:07:22;15.20;99.90
61201;DHT22;47065;52.898;6.992;2022-10-31T11:09:47;15.20;99.90
61201;DHT22;47065;52.898;6.992;2022-10-31T11:12:24;15.20;99.90
61201;DHT22;47065;52.898;6.992;2022-10-31T11:15:07;15.20;99.90
61201;DHT22;47065;52.898;6.992;2022-10-31T11:17:38;15.30;99.90
61201;DHT22;47065;52.898;6.992;2022-10-31T11:22:43;15.30;99.90
61201;DHT22;47065;52.898;6.992;2022-10-31T11:25:22;15.40;99.90
61201;DHT22;47065;52.898;6.992;2022-10-31T11:28:02;15.40;99.90
61201;DHT22;47065;52.898;6.992;2022-10-31T11:30:28;15.50;99.90
61201;DHT22;47065;52.898;6.992;2022-10-31T11:32:55;15.50;99.90
61201;DHT22;47065;52.898;6.992;2022-10-31T11:35:22;15.50;99.90
61201;DHT22;47065;52.898;6.992;2022-10-31T11:37:51;15.40;99.90
61201;DHT22;47065;52.898;6.992;2022-10-31T11:40:24;15.50;99.90
61201;DHT22;47065;52.898;6.992;2022-10-31T11:42:53;15.40;99.90
61201;DHT22;47065;52.898;6.992;2022-10-31T11:47:51;15.40;99.90
61201;DHT22;47065;52.898;6.992;2022-10-31T11:50:24;15.40;99.90
61201;DHT22;47065;52.898;6.992;2022-10-31T11:52:52;15.40;99.90
61201;DHT22;47065;52.898;6.992;2022-10-31T11:57:58;15.40;99.90
61201;DHT22;47065;52.898;6.992;2022-10-31T12:00:28;15.40;99.90
61201;DHT22;47065;52.898;6.992;2022-10-31T12:03:29;15.40;99.90
61201;DHT22;47065;52.898;6.992;2022-10-31T12:06:18;15.50;99.90
61201;DHT22;47065;52.898;6.992;2022-10-31T12:08:46;15.50;99.90
61201;DHT22;47065;52.898;6.992;2022-10-31T12:11:50;15.50;99.90
61201;DHT22;47065;52.898;6.992;2022-10-31T12:20:03;15.70;99.90
61201;DHT22;47065;52.898;6.992;2022-10-31T12:23:01;15.80;99.90
61201;DHT22;47065;52.898;6.992;2022-10-31T12:25:43;15.80;99.90
61201;DHT22;47065;52.898;6.992;2022-10-31T12:37:00;15.90;99.90
61201;DHT22;47065;52.898;6.992;2022-10-31T12:39:42;15.90;99.90
61201;DHT22;47065;52.898;6.992;2022-10-31T12:47:53;16.00;99.90
61201;DHT22;47065;52.898;6.992;2022-10-31T12:55:41;16.10;99.90
61201;DHT22;47065;52.898;6.992;2022-10-31T13:00:48;16.20;99.90
61201;DHT22;47065;52.898;6.992;2022-10-31T13:03:30;16.30;99.90
61201;DHT22;47065;52.898;6.992;2022-10-31T13:06:03;16.30;99.90
61201;DHT22;47065;52.898;6.992;2022-10-31T13:08:39;16.40;99.90
61201;DHT22;47065;52.898;6.992;2022-10-31T13:11:26;16.50;99.90
61201;DHT22;47065;52.898;6.992;2022-10-31T13:14:06;16.60;99.90
61201;DHT22;47065;52.898;6.992;2022-10-31T13:16:40;16.60;99.90
61201;DHT22;47065;52.898;6.992;2022-10-31T13:19:15;16.60;99.90
61201;DHT22;47065;52.898;6.992;2022-10-31T13:21:59;16.70;99.90
61201;DHT22;47065;52.898;6.992;2022-10-31T13:24:35;16.70;99.90
61201;DHT22;47065;52.898;6.992;2022-10-31T13:27:09;16.80;99.90
61201;DHT22;47065;52.898;6.992;2022-10-31T13:29:42;16.80;99.90
61201;DHT22;47065;52.898;6.992;2022-10-31T13:32:12;16.80;99.90
61201;DHT22;47065;52.898;6.992;2022-10-31T13:34:46;16.80;99.90
61201;DHT22;47065;52.898;6.992;2022-10-31T13:37:38;16.80;99.90
61201;DHT22;47065;52.898;6.992;2022-10-31T13:40:31;16.80;99.90
61201;DHT22;47065;52.898;6.992;2022-10-31T13:45:53;16.70;99.90
61201;DHT22;47065;52.898;6.992;2022-10-31T13:48:39;16.70;99.90
61201;DHT22;47065;52.898;6.992;2022-10-31T13:51:10;16.70;99.90
61201;DHT22;47065;52.898;6.992;2022-10-31T13:53:58;16.70;99.90
61201;DHT22;47065;52.898;6.992;2022-10-31T13:56:30;16.70;99.90
61201;DHT22;47065;52.898;6.992;2022-10-31T14:01:34;16.70;99.90
61201;DHT22;47065;52.898;6.992;2022-10-31T14:04:06;16.70;99.90
61201;DHT22;47065;52.898;6.992;2022-10-31T14:12:22;16.70;99.90
61201;DHT22;47065;52.898;6.992;2022-10-31T14:14:54;16.70;99.90
61201;DHT22;47065;52.898;6.992;2022-10-31T14:17:31;16.70;99.90
61201;DHT22;47065;52.898;6.992;2022-10-31T14:20:02;16.60;99.90
61201;DHT22;47065;52.898;6.992;2022-10-31T14:22:32;16.60;99.90
61201;DHT22;47065;52.898;6.992;2022-10-31T14:24:58;16.50;99.90
61201;DHT22;47065;52.898;6.992;2022-10-31T14:29:53;16.40;99.90
61201;DHT22;47065;52.898;6.992;2022-10-31T14:32:23;16.40;99.90
61201;DHT22;47065;52.898;6.992;2022-10-31T14:37:26;16.30;99.90
61201;DHT22;47065;52.898;6.992;2022-10-31T14:50:58;16.00;99.90
61201;DHT22;47065;52.898;6.992;2022-10-31T14:53:30;16.00;99.90
61201;DHT22;47065;52.898;6.992;2022-10-31T14:55:57;15.90;99.90
61201;DHT22;47065;52.898;6.992;2022-10-31T14:58:43;15.90;99.90
61201;DHT22;47065;52.898;6.992;2022-10-31T15:01:31;15.80;99.90
61201;DHT22;47065;52.898;6.992;2022-10-31T15:04:04;15.80;99.90
61201;DHT22;47065;52.898;6.992;2022-10-31T15:06:44;15.70;99.90
61201;DHT22;47065;52.898;6.992;2022-10-31T15:09:28;15.70;99.90
61201;DHT22;47065;52.898;6.992;2022-10-31T15:11:53;15.60;99.90
61201;DHT22;47065;52.898;6.992;2022-10-31T15:14:26;15.60;99.90
61201;DHT22;47065;52.898;6.992;2022-10-31T15:16:52;15.60;99.90
61201;DHT22;47065;52.898;6.992;2022-10-31T15:19:23;15.50;99.90
61201;DHT22;47065;52.898;6.992;2022-10-31T15:21:51;15.50;99.90
61201;DHT22;47065;52.898;6.992;2022-10-31T15:24:17;15.40;99.90
61201;DHT22;47065;52.898;6.992;2022-10-31T15:26:46;15.40;99.90
61201;DHT22;47065;52.898;6.992;2022-10-31T15:29:16;15.30;99.90
61201;DHT22;47065;52.898;6.992;2022-10-31T15:31:50;15.30;99.90
61201;DHT22;47065;52.898;6.992;2022-10-31T15:34:26;15.20;99.90
61201;DHT22;47065;52.898;6.992;2022-10-31T15:36:53;15.20;99.90
61201;DHT22;47065;52.898;6.992;2022-10-31T15:39:18;15.00;99.90
61201;DHT22;47065;52.898;6.992;2022-10-31T15:41:56;15.00;99.90
61201;DHT22;47065;52.898;6.992;2022-10-31T15:44:26;15.00;99.90
61201;DHT22;47065;52.898;6.992;2022-10-31T15:49:56;14.80;99.90
61201;DHT22;47065;52.898;6.992;2022-10-31T15:52:36;14.80;99.90
61201;DHT22;47065;52.898;6.992;2022-10-31T15:55:27;14.70;99.90
61201;DHT22;47065;52.898;6.992;2022-10-31T15:57:56;14.70;99.90
61201;DHT22;47065;52.898;6.992;2022-10-31T16:00:28;14.60;99.90
61201;DHT22;47065;52.898;6.992;2022-10-31T16:05:52;14.50;99.90
61201;DHT22;47065;52.898;6.992;2022-10-31T16:10:57;14.30;99.90
61201;DHT22;47065;52.898;6.992;2022-10-31T16:13:30;14.30;99.90
61201;DHT22;47065;52.898;6.992;2022-10-31T16:16:10;14.20;99.90
61201;DHT22;47065;52.898;6.992;2022-10-31T16:18:38;14.20;99.90
61201;DHT22;47065;52.898;6.992;2022-10-31T16:21:06;14.20;99.90
61201;DHT22;47065;52.898;6.992;2022-10-31T16:23:32;14.20;99.90
61201;DHT22;47065;52.898;6.992;2022-10-31T16:25:58;14.10;99.90
61201;DHT22;47065;52.898;6.992;2022-10-31T16:28:26;14.10;99.90
61201;DHT22;47065;52.898;6.992;2022-10-31T16:30:54;14.10;99.90
61201;DHT22;47065;52.898;6.992;2022-10-31T16:38:54;14.00;99.90
61201;DHT22;47065;52.898;6.992;2022-10-31T16:41:20;13.90;99.90
61201;DHT22;47065;52.898;6.992;2022-10-31T16:43:46;13.90;99.90
61201;DHT22;47065;52.898;6.992;2022-10-31T16:46:23;13.90;99.90
61201;DHT22;47065;52.898;6.992;2022-10-31T16:48:50;13.80;99.90
61201;DHT22;47065;52.898;6.992;2022-10-31T16:51:16;13.90;99.90
61201;DHT22;47065;52.898;6.992;2022-10-31T16:53:41;13.90;99.90
61201;DHT22;47065;52.898;6.992;2022-10-31T16:56:17;13.90;99.90
61201;DHT22;47065;52.898;6.992;2022-10-31T16:58:44;13.90;99.90
61201;DHT22;47065;52.898;6.992;2022-10-31T17:01:11;13.90;99.90
61201;DHT22;47065;52.898;6.992;2022-10-31T17:03:38;13.90;99.90
61201;DHT22;47065;52.898;6.992;2022-10-31T17:06:04;13.90;99.90
61201;DHT22;47065;52.898;6.992;2022-10-31T17:08:29;13.90;99.90
61201;DHT22;47065;52.898;6.992;2022-10-31T17:10:56;13.90;99.90
61201;DHT22;47065;52.898;6.992;2022-10-31T17:13:24;13.90;99.90
61201;DHT22;47065;52.898;6.992;2022-10-31T17:15:53;13.90;99.90
61201;DHT22;47065;52.898;6.992;2022-10-31T17:18:19;14.00;99.90
61201;DHT22;47065;52.898;6.992;2022-10-31T17:20:45;14.00;99.90
61201;DHT22;47065;52.898;6.992;2022-10-31T17:23:13;14.00;99.90
61201;DHT22;47065;52.898;6.992;2022-10-31T17:25:38;14.00;99.90
61201;DHT22;47065;52.898;6.992;2022-10-31T17:28:05;14.00;99.90
61201;DHT22;47065;52.898;6.992;2022-10-31T17:30:33;14.00;99.90
61201;DHT22;47065;52.898;6.992;2022-10-31T17:32:59;14.00;99.90
61201;DHT22;47065;52.898;6.992;2022-10-31T17:35:25;14.10;99.90
61201;DHT22;47065;52.898;6.992;2022-10-31T17:37:51;14.10;99.90
61201;DHT22;47065;52.898;6.992;2022-10-31T17:40:19;14.10;99.90
61201;DHT22;47065;52.898;6.992;2022-10-31T17:42:53;14.10;99.90
61201;DHT22;47065;52.898;6.992;2022-10-31T17:45:20;14.20;99.90
61201;DHT22;47065;52.898;6.992;2022-10-31T17:47:47;14.20;99.90
61201;DHT22;47065;52.898;6.992;2022-10-31T17:50:15;14.20;99.90
61201;DHT22;47065;52.898;6.992;2022-10-31T17:52:41;14.20;99.90
61201;DHT22;47065;52.898;6.992;2022-10-31T17:55:06;14.20;99.90
61201;DHT22;47065;52.898;6.992;2022-10-31T17:57:33;14.20;99.90
61201;DHT22;47065;52.898;6.992;2022-10-31T17:59:59;14.20;99.90
61201;DHT22;47065;52.898;6.992;2022-10-31T18:02:25;14.20;99.90